createdAt,value
2023-02-02T00:02:00.194Z,100.00
2023-02-02T00:05:00.216Z,100.00
2023-02-02T00:08:00.240Z,100.00
2023-02-02T00:11:00.216Z,100.00
2023-02-02T00:14:00.234Z,100.00
2023-02-02T00:17:01.216Z,100.00
2023-02-02T00:20:01.215Z,100.00
2023-02-02T00:23:01.203Z,100.00
2023-02-02T00:26:04.202Z,100.00
2023-02-02T00:29:04.190Z,100.00
2023-02-02T00:32:05.187Z,100.00
2023-02-02T00:35:05.220Z,100.00
2023-02-02T00:38:05.179Z,100.00
2023-02-02T00:41:05.212Z,100.00
2023-02-02T00:44:23.199Z,100.00
2023-02-02T00:47:23.200Z,100.00
2023-02-02T00:50:26.224Z,100.00
2023-02-02T00:53:26.210Z,100.00
2023-02-02T00:56:26.223Z,100.00
2023-02-02T00:59:26.198Z,100.00
2023-02-02T01:02:26.231Z,100.00
2023-02-02T01:05:27.230Z,100.00
2023-02-02T01:08:27.186Z,100.00
2023-02-02T01:11:27.227Z,100.00
2023-02-02T01:14:27.232Z,100.00
2023-02-02T01:17:27.177Z,100.00
2023-02-02T01:20:32.251Z,100.00
2023-02-02T01:23:32.187Z,100.00
2023-02-02T01:26:32.260Z,100.00
2023-02-02T01:29:32.177Z,100.00
2023-02-02T01:32:32.243Z,100.00
2023-02-02T01:35:32.184Z,100.00
2023-02-02T01:38:32.185Z,100.00
2023-02-02T01:41:37.233Z,100.00
2023-02-02T01:45:11.195Z,100.00
2023-02-02T01:48:13.181Z,100.00
2023-02-02T01:51:16.201Z,100.00
2023-02-02T01:54:17.214Z,100.00
2023-02-02T01:57:23.185Z,100.00
2023-02-02T02:00:31.204Z,100.00
2023-02-02T02:03:33.233Z,100.00
2023-02-02T02:06:33.197Z,100.00
2023-02-02T02:09:33.176Z,100.00
2023-02-02T02:12:33.224Z,100.00
2023-02-02T02:15:52.219Z,100.00
2023-02-02T02:19:04.207Z,100.00
2023-02-02T02:22:28.211Z,100.00
2023-02-02T02:26:27.240Z,100.00
2023-02-02T02:29:52.182Z,100.00
2023-02-02T02:32:58.190Z,100.00
2023-02-02T02:36:08.192Z,100.00
2023-02-02T02:39:24.200Z,100.00
2023-02-02T02:42:31.226Z,100.00
2023-02-02T02:45:31.187Z,100.00
2023-02-02T02:48:31.205Z,100.00
2023-02-02T02:51:53.223Z,100.00
2023-02-02T02:55:12.201Z,100.00
2023-02-02T02:58:25.188Z,100.00
2023-02-02T03:01:45.278Z,100.00
2023-02-02T03:04:53.221Z,100.00
2023-02-02T03:08:00.167Z,100.00
2023-02-02T03:11:01.200Z,100.00
2023-02-02T03:14:01.181Z,100.00
2023-02-02T03:17:01.216Z,100.00
2023-02-02T03:20:01.215Z,100.00
2023-02-02T03:23:01.263Z,100.00
2023-02-02T03:26:01.211Z,100.00
2023-02-02T03:29:02.224Z,100.00
2023-02-02T03:32:02.184Z,100.00
2023-02-02T03:35:02.201Z,100.00
2023-02-02T03:38:02.181Z,100.00
2023-02-02T03:41:02.159Z,100.00
2023-02-02T03:44:02.295Z,100.00
2023-02-02T03:47:02.169Z,100.00
2023-02-02T03:50:02.246Z,100.00
2023-02-02T03:53:02.205Z,100.00
2023-02-02T03:56:02.191Z,100.00
2023-02-02T03:59:02.211Z,100.00
2023-02-02T04:02:02.226Z,100.00
2023-02-02T04:05:02.171Z,100.00
2023-02-02T04:08:02.233Z,100.00
2023-02-02T04:11:02.169Z,100.00
2023-02-02T04:14:02.208Z,100.00
2023-02-02T04:17:02.206Z,100.00
2023-02-02T04:20:04.193Z,100.00
2023-02-02T04:23:04.203Z,100.00
2023-02-02T04:26:05.177Z,100.00
2023-02-02T04:29:05.181Z,100.00
2023-02-02T04:32:05.196Z,100.00
2023-02-02T04:35:05.220Z,100.00
2023-02-02T04:38:05.234Z,100.00
2023-02-02T04:41:05.181Z,100.00
2023-02-02T04:44:05.173Z,100.00
2023-02-02T04:47:05.196Z,100.00
2023-02-02T04:50:05.217Z,100.00
2023-02-02T04:53:05.197Z,100.00
2023-02-02T04:56:05.184Z,100.00
2023-02-02T04:59:07.174Z,100.00
2023-02-02T05:02:00.683Z,100.00
2023-02-02T05:05:00.219Z,100.00
2023-02-02T05:08:00.183Z,100.00
2023-02-02T05:11:00.205Z,100.00
2023-02-02T05:14:07.219Z,100.00
2023-02-02T05:17:07.154Z,100.00
2023-02-02T05:20:07.181Z,100.00
2023-02-02T05:23:07.205Z,100.00
2023-02-02T05:26:08.212Z,100.00
2023-02-02T05:29:08.178Z,100.00
2023-02-02T05:32:08.281Z,100.00
2023-02-02T05:35:08.210Z,100.00
2023-02-02T05:38:08.189Z,100.00
2023-02-02T05:41:08.199Z,100.00
2023-02-02T05:44:08.171Z,100.00
2023-02-02T05:47:08.181Z,100.00
2023-02-02T05:50:09.152Z,100.00
2023-02-02T05:53:09.188Z,100.00
2023-02-02T05:56:09.197Z,100.00
2023-02-02T05:59:11.218Z,100.00
2023-02-02T06:02:11.153Z,100.00
2023-02-02T06:05:11.221Z,100.00
2023-02-02T06:08:11.194Z,100.00
2023-02-02T06:11:11.193Z,100.00
2023-02-02T06:14:12.167Z,100.00
2023-02-02T06:17:13.183Z,100.00
2023-02-02T06:20:13.182Z,100.00
2023-02-02T06:23:32.804Z,100.00
2023-02-02T06:26:42.261Z,100.00
2023-02-02T06:29:42.152Z,100.00
2023-02-02T06:32:43.192Z,100.00
2023-02-02T06:35:43.188Z,100.00
2023-02-02T06:38:44.214Z,100.00
2023-02-02T06:41:44.275Z,100.00
2023-02-02T06:44:44.177Z,100.00
2023-02-02T06:47:46.497Z,100.00
2023-02-02T06:50:47.295Z,100.00
2023-02-02T06:53:48.252Z,100.00
2023-02-02T06:56:49.253Z,100.00
2023-02-02T06:59:50.265Z,100.00
2023-02-02T07:02:50.190Z,100.00
2023-02-02T07:05:51.214Z,100.00
2023-02-02T07:09:01.829Z,100.00
2023-02-02T07:12:05.186Z,100.00
2023-02-02T07:15:06.185Z,100.00
2023-02-02T07:18:08.323Z,100.00
2023-02-02T07:21:08.245Z,100.00
2023-02-02T07:24:11.179Z,100.00
2023-02-02T07:27:11.220Z,100.00
2023-02-02T07:30:11.178Z,100.00
2023-02-02T07:33:11.231Z,100.00
2023-02-02T07:36:23.375Z,100.00
2023-02-02T07:39:23.205Z,100.00
2023-02-02T07:42:26.183Z,100.00
2023-02-02T07:45:27.879Z,100.00
2023-02-02T07:48:29.149Z,100.00
2023-02-02T07:51:31.167Z,100.00
2023-02-02T07:54:31.169Z,100.00
2023-02-02T07:57:33.433Z,100.00
2023-02-02T08:00:38.204Z,100.00
2023-02-02T08:03:38.159Z,100.00
2023-02-02T08:06:58.274Z,100.00
2023-02-02T08:10:06.326Z,100.00
2023-02-02T08:13:07.329Z,100.00
2023-02-02T08:16:07.325Z,100.00
2023-02-02T08:19:07.160Z,99.71
2023-02-02T08:22:07.209Z,99.66
2023-02-02T08:25:07.189Z,99.39
2023-02-02T08:28:09.202Z,99.01
2023-02-02T08:31:09.275Z,99.03
2023-02-02T08:34:09.216Z,97.83
2023-02-02T08:37:16.225Z,95.93
2023-02-02T08:40:16.213Z,93.58
2023-02-02T08:43:17.228Z,89.16
2023-02-02T08:46:18.451Z,81.92
2023-02-02T08:49:18.184Z,78.17
2023-02-02T08:52:18.173Z,74.44
2023-02-02T08:55:18.195Z,67.19
2023-02-02T08:58:18.196Z,62.96
2023-02-02T09:04:17.184Z,58.42
2023-02-02T09:06:56.322Z,57.94
2023-02-02T09:09:42.214Z,53.43
2023-02-02T09:12:21.236Z,53.90
2023-02-02T09:15:07.200Z,51.61
2023-02-02T09:17:53.174Z,51.63
2023-02-02T09:20:53.176Z,50.52
2023-02-02T09:23:55.154Z,48.72
2023-02-02T09:26:56.328Z,47.77
2023-02-02T09:29:56.196Z,48.92
2023-02-02T09:32:57.321Z,47.35
2023-02-02T09:35:57.183Z,49.65
2023-02-02T09:38:58.203Z,49.84
2023-02-02T09:42:18.188Z,47.74
2023-02-02T09:45:21.168Z,46.11
2023-02-02T09:48:31.169Z,45.55
2023-02-02T09:51:35.187Z,46.46
2023-02-02T09:54:44.793Z,46.04
2023-02-02T09:57:52.202Z,46.44
2023-02-02T10:00:56.209Z,45.55
2023-02-02T10:04:11.254Z,44.86
2023-02-02T10:07:15.184Z,44.12
2023-02-02T10:10:24.156Z,42.78
2023-02-02T10:13:34.231Z,40.70
2023-02-02T10:16:35.164Z,42.35
2023-02-02T10:19:38.214Z,42.14
2023-02-02T10:22:42.172Z,42.08
2023-02-02T10:25:42.180Z,42.46
2023-02-02T10:29:30.886Z,41.35
2023-02-02T10:32:39.213Z,40.51
2023-02-02T10:35:59.178Z,41.89
2023-02-02T10:39:14.217Z,39.83
2023-02-02T10:43:20.206Z,40.71
2023-02-02T10:46:25.393Z,41.85
2023-02-02T10:49:47.208Z,41.35
2023-02-02T10:52:54.228Z,43.55
2023-02-02T10:56:24.201Z,43.07
2023-02-02T10:59:29.220Z,42.06
2023-02-02T11:02:29.204Z,41.25
2023-02-02T11:05:56.212Z,42.20
2023-02-02T11:09:05.224Z,40.54
2023-02-02T11:12:23.229Z,40.15
2023-02-02T11:15:42.239Z,39.96
2023-02-02T11:18:44.332Z,43.20
2023-02-02T11:21:48.218Z,44.81
2023-02-02T11:24:58.210Z,47.17
2023-02-02T11:27:58.198Z,48.67
2023-02-02T11:31:01.358Z,48.73
2023-02-02T11:34:42.164Z,48.18
2023-02-02T11:37:42.201Z,47.95
2023-02-02T11:40:51.378Z,46.57
2023-02-02T11:44:01.202Z,46.96
2023-02-02T11:47:01.228Z,46.48
2023-02-02T11:50:02.505Z,44.91
2023-02-02T11:53:05.263Z,47.28
2023-02-02T11:56:05.220Z,46.32
2023-02-02T11:59:07.178Z,46.68
2023-02-02T12:02:30.197Z,47.66
2023-02-02T12:05:33.288Z,47.85
2023-02-02T12:08:33.157Z,50.08
2023-02-02T12:11:52.374Z,50.00
2023-02-02T12:15:26.225Z,50.15
2023-02-02T12:18:49.217Z,49.50
2023-02-02T12:22:15.246Z,47.67
2023-02-02T12:25:31.193Z,48.71
2023-02-02T12:29:02.251Z,49.48
2023-02-02T12:32:28.209Z,50.60
2023-02-02T12:36:07.282Z,52.13
2023-02-02T12:39:24.173Z,51.82
2023-02-02T12:42:50.208Z,53.52
2023-02-02T12:45:59.190Z,53.98
2023-02-02T12:49:27.235Z,54.54
2023-02-02T12:52:45.209Z,54.47
2023-02-02T12:55:57.209Z,54.59
2023-02-02T12:59:17.188Z,55.16
2023-02-02T13:02:31.263Z,55.00
2023-02-02T13:05:55.222Z,55.55
2023-02-02T13:09:11.216Z,56.37
2023-02-02T13:12:37.187Z,57.53
2023-02-02T13:15:43.248Z,55.70
2023-02-02T13:18:46.184Z,55.18
2023-02-02T13:21:46.228Z,55.88
2023-02-02T13:24:49.223Z,55.64
2023-02-02T13:27:50.175Z,55.87
2023-02-02T13:30:53.344Z,56.53
2023-02-02T13:33:56.251Z,56.73
2023-02-02T13:36:59.162Z,57.46
2023-02-02T13:40:31.173Z,57.25
2023-02-02T13:43:57.228Z,57.81
2023-02-02T13:47:04.233Z,57.66
2023-02-02T13:50:08.229Z,57.90
2023-02-02T13:53:42.229Z,57.96
2023-02-02T13:57:13.332Z,57.27
2023-02-02T14:00:32.213Z,57.87
2023-02-02T14:03:56.202Z,58.43
2023-02-02T14:07:25.178Z,58.78
2023-02-02T14:11:13.170Z,58.81
2023-02-02T14:14:41.205Z,59.04
2023-02-02T14:17:47.212Z,59.15
2023-02-02T14:20:55.161Z,59.66
2023-02-02T14:24:04.190Z,59.67
2023-02-02T14:27:35.380Z,59.02
2023-02-02T14:30:39.256Z,59.44
2023-02-02T14:33:41.508Z,59.91
2023-02-02T14:36:42.182Z,60.27
2023-02-02T14:39:44.173Z,60.59
2023-02-02T14:43:11.177Z,61.71
2023-02-02T14:46:21.264Z,61.79
2023-02-02T14:49:26.393Z,62.38
2023-02-02T14:52:35.243Z,64.73
2023-02-02T14:55:35.221Z,64.87
2023-02-02T14:59:00.280Z,65.20
2023-02-02T15:02:30.220Z,66.22
2023-02-02T15:05:45.179Z,65.98
2023-02-02T15:08:45.199Z,66.26
2023-02-02T15:12:13.183Z,65.83
2023-02-02T15:15:30.234Z,65.82
2023-02-02T15:18:35.201Z,65.80
2023-02-02T15:21:35.219Z,66.08
2023-02-02T15:24:38.195Z,66.90
2023-02-02T15:27:48.025Z,65.69
2023-02-02T15:30:58.262Z,65.82
2023-02-02T15:34:01.244Z,65.79
2023-02-02T15:37:03.171Z,67.20
2023-02-02T15:40:06.207Z,67.44
2023-02-02T15:43:20.167Z,67.74
2023-02-02T15:46:30.215Z,71.88
2023-02-02T15:49:36.206Z,73.00
2023-02-02T15:52:46.461Z,73.33
2023-02-02T15:55:48.195Z,73.83
2023-02-02T15:58:45.261Z,75.02
2023-02-02T16:01:47.202Z,75.90
2023-02-02T16:04:56.204Z,74.44
2023-02-02T16:08:05.052Z,73.38
2023-02-02T16:11:15.178Z,73.32
2023-02-02T16:14:20.183Z,73.11
2023-02-02T16:17:43.228Z,73.48
2023-02-02T16:20:46.187Z,73.49
2023-02-02T16:23:48.194Z,72.71
2023-02-02T16:26:48.267Z,72.12
2023-02-02T16:29:48.192Z,72.79
2023-02-02T16:32:51.294Z,73.29
2023-02-02T16:35:52.181Z,72.97
2023-02-02T16:38:52.200Z,73.40
2023-02-02T16:41:55.302Z,73.28
2023-02-02T16:44:56.235Z,72.59
2023-02-02T16:47:56.239Z,71.49
2023-02-02T16:51:10.166Z,71.68
2023-02-02T16:54:18.219Z,73.44
2023-02-02T16:57:18.199Z,72.37
2023-02-02T17:00:20.182Z,72.75
2023-02-02T17:03:24.166Z,73.00
2023-02-02T17:06:24.170Z,73.43
2023-02-02T17:09:40.323Z,73.77
2023-02-02T17:12:40.184Z,74.00
2023-02-02T17:15:42.173Z,74.45
2023-02-02T17:18:42.238Z,75.26
2023-02-02T17:21:42.241Z,75.84
2023-02-02T17:24:42.189Z,76.47
2023-02-02T17:27:45.206Z,77.09
2023-02-02T17:30:45.282Z,78.49
2023-02-02T17:33:47.179Z,78.78
2023-02-02T17:36:47.181Z,79.68
2023-02-02T17:39:47.168Z,79.85
2023-02-02T17:42:48.210Z,80.10
2023-02-02T17:45:49.241Z,81.26
2023-02-02T17:48:49.207Z,80.98
2023-02-02T17:51:50.222Z,81.22
2023-02-02T17:54:50.197Z,81.87
2023-02-02T17:57:50.166Z,81.42
2023-02-02T18:00:52.180Z,81.26
2023-02-02T18:03:53.211Z,80.36
2023-02-02T18:06:53.200Z,80.26
2023-02-02T18:09:53.185Z,79.94
2023-02-02T18:12:53.165Z,80.54
2023-02-02T18:15:53.340Z,80.72
2023-02-02T18:18:53.175Z,81.10
2023-02-02T18:21:53.219Z,82.08
2023-02-02T18:24:54.202Z,82.12
2023-02-02T18:27:57.387Z,82.22
2023-02-02T18:30:57.261Z,82.41
2023-02-02T18:33:57.217Z,82.93
2023-02-02T18:36:57.211Z,82.34
2023-02-02T18:39:57.178Z,82.28
2023-02-02T18:42:57.196Z,82.27
2023-02-02T18:45:57.164Z,82.78
2023-02-02T18:48:57.185Z,83.61
2023-02-02T18:51:57.213Z,83.77
2023-02-02T18:54:57.187Z,84.11
2023-02-02T18:57:57.167Z,83.82
2023-02-02T19:00:57.215Z,83.87
2023-02-02T19:04:03.275Z,84.67
2023-02-02T19:07:21.182Z,85.78
2023-02-02T19:10:24.206Z,86.13
2023-02-02T19:13:32.223Z,86.51
2023-02-02T19:16:44.183Z,86.58
2023-02-02T19:19:48.218Z,86.60
2023-02-02T19:22:49.189Z,87.79
2023-02-02T19:25:51.280Z,87.72
2023-02-02T19:28:53.176Z,89.13
2023-02-02T19:31:53.252Z,89.64
2023-02-02T19:34:53.233Z,89.95
2023-02-02T19:37:54.198Z,90.77
2023-02-02T19:40:55.212Z,91.45
2023-02-02T19:43:55.162Z,92.01
2023-02-02T19:46:57.260Z,92.18
2023-02-02T19:49:57.204Z,93.27
2023-02-02T19:52:57.178Z,94.03
2023-02-02T19:55:57.183Z,94.58
2023-02-02T19:58:57.211Z,94.76
2023-02-02T20:01:57.170Z,93.99
2023-02-02T20:04:57.216Z,94.05
2023-02-02T20:07:57.209Z,94.41
2023-02-02T20:10:57.233Z,94.25
2023-02-02T20:14:00.213Z,94.75
2023-02-02T20:17:10.212Z,94.79
2023-02-02T20:20:10.194Z,94.09
2023-02-02T20:23:11.203Z,94.58
2023-02-02T20:26:12.202Z,93.00
2023-02-02T20:29:14.162Z,92.76
2023-02-02T20:32:14.264Z,92.62
2023-02-02T20:35:14.163Z,92.87
2023-02-02T20:38:15.186Z,92.43
2023-02-02T20:41:15.203Z,92.28
2023-02-02T20:44:15.213Z,89.64
2023-02-02T20:47:16.219Z,90.04
2023-02-02T20:50:16.169Z,89.79
2023-02-02T20:53:16.202Z,89.15
2023-02-02T20:56:16.230Z,88.76
2023-02-02T20:59:16.211Z,89.31
2023-02-02T21:02:17.216Z,89.57
2023-02-02T21:05:17.168Z,89.70
2023-02-02T21:08:17.157Z,89.87
2023-02-02T21:11:17.170Z,90.78
2023-02-02T21:14:17.204Z,90.62
2023-02-02T21:17:17.190Z,90.03
2023-02-02T21:20:17.166Z,90.09
2023-02-02T21:23:17.160Z,89.54
2023-02-02T21:29:22.192Z,88.26
2023-02-02T21:32:22.168Z,88.15
2023-02-02T21:35:22.193Z,88.70
2023-02-02T21:38:27.209Z,89.24
2023-02-02T21:41:28.164Z,89.67
2023-02-02T21:44:30.203Z,89.80
2023-02-02T21:47:49.168Z,89.78
2023-02-02T21:50:51.175Z,89.81
2023-02-02T21:53:51.160Z,89.85
2023-02-02T21:56:52.229Z,89.30
2023-02-02T21:59:53.177Z,89.85
2023-02-02T22:03:00.337Z,90.26
2023-02-02T22:06:00.166Z,90.94
2023-02-02T22:09:01.220Z,91.25
2023-02-02T22:12:09.160Z,91.88
2023-02-02T22:15:15.216Z,93.31
2023-02-02T22:18:26.187Z,93.60
2023-02-02T22:21:28.177Z,94.01
2023-02-02T22:24:28.182Z,93.51
2023-02-02T22:27:34.159Z,93.86
2023-02-02T22:30:53.243Z,94.53
2023-02-02T22:33:53.212Z,94.16
2023-02-02T22:36:53.169Z,94.63
2023-02-02T22:39:53.187Z,95.03
2023-02-02T22:42:53.198Z,94.83
2023-02-02T22:45:53.295Z,94.64
2023-02-02T22:48:53.218Z,94.12
2023-02-02T22:51:54.323Z,93.74
2023-02-02T22:54:54.160Z,93.32
2023-02-02T22:57:54.136Z,92.85
2023-02-02T23:00:54.195Z,92.94
2023-02-02T23:03:55.228Z,91.82
2023-02-02T23:06:55.203Z,90.16
2023-02-02T23:09:55.198Z,89.27
2023-02-02T23:12:56.161Z,88.13
2023-02-02T23:15:56.247Z,87.06
2023-02-02T23:18:56.185Z,86.09
2023-02-02T23:21:56.205Z,86.83
2023-02-02T23:24:56.160Z,86.43
2023-02-02T23:27:56.187Z,85.82
2023-02-02T23:30:56.250Z,86.23
2023-02-02T23:33:56.214Z,86.36
2023-02-02T23:36:56.154Z,84.79
2023-02-02T23:39:56.154Z,84.21
2023-02-02T23:42:56.150Z,82.74
2023-02-02T23:45:56.203Z,82.85
2023-02-02T23:48:56.187Z,82.60
2023-02-02T23:51:49.266Z,82.32
2023-02-02T23:54:49.144Z,82.32
2023-02-02T23:57:49.156Z,82.78
